createdAt,value
2023-02-11T00:00:33.795Z,25.92
2023-02-11T00:03:01.047Z,24.30
2023-02-11T00:05:29.569Z,24.67
2023-02-11T00:07:57.172Z,24.58
2023-02-11T00:10:24.355Z,25.73
2023-02-11T00:12:51.544Z,26.98
2023-02-11T00:15:18.708Z,28.95
2023-02-11T00:17:45.856Z,27.83
2023-02-11T00:20:13.048Z,29.17
2023-02-11T00:22:41.641Z,27.45
2023-02-11T00:25:08.815Z,27.05
2023-02-11T00:27:36.655Z,27.70
2023-02-11T00:30:04.468Z,25.08
2023-02-11T00:32:31.657Z,26.20
2023-02-11T00:34:58.842Z,26.65
2023-02-11T00:37:26.075Z,28.70
2023-02-11T00:39:54.824Z,27.58
2023-02-11T00:42:22.007Z,28.77
2023-02-11T00:44:49.191Z,26.63
2023-02-11T00:47:17.425Z,26.92
2023-02-11T00:49:44.634Z,27.00
2023-02-11T00:52:11.788Z,25.98
2023-02-11T00:54:38.962Z,26.17
2023-02-11T00:57:08.618Z,25.80
2023-02-11T00:59:35.966Z,25.90
2023-02-11T01:02:03.388Z,28.77
2023-02-11T01:04:30.585Z,29.45
2023-02-11T01:06:57.797Z,28.35
2023-02-11T01:09:26.052Z,28.33
2023-02-11T01:11:53.254Z,26.65
2023-02-11T01:14:21.794Z,29.42
2023-02-11T01:16:51.616Z,31.00
2023-02-11T01:19:20.621Z,31.30
2023-02-11T01:21:47.842Z,29.52
2023-02-11T01:24:15.047Z,30.98
2023-02-11T01:26:44.707Z,28.80
2023-02-11T01:29:11.849Z,28.33
2023-02-11T01:31:40.538Z,28.63
2023-02-11T01:34:07.761Z,28.73
2023-02-11T01:36:37.333Z,29.10
2023-02-11T01:39:04.557Z,29.42
2023-02-11T01:41:31.952Z,29.30
2023-02-11T01:43:59.325Z,29.58
2023-02-11T01:46:31.722Z,27.27
2023-02-11T01:49:04.627Z,30.85
2023-02-11T01:51:37.333Z,28.40
2023-02-11T01:54:07.078Z,29.65
2023-02-11T01:56:37.130Z,30.35
2023-02-11T01:59:11.165Z,28.55
2023-02-11T02:01:41.514Z,28.77
2023-02-11T02:04:11.463Z,29.63
2023-02-11T02:06:46.040Z,29.20
2023-02-11T02:09:21.326Z,32.83
2023-02-11T02:11:48.867Z,30.48
2023-02-11T02:14:16.097Z,31.25
2023-02-11T02:16:44.564Z,29.85
2023-02-11T02:19:47.590Z,28.58
2023-02-11T02:22:42.969Z,30.98
2023-02-11T02:25:27.612Z,29.90
2023-02-11T02:28:06.908Z,29.33
2023-02-11T02:31:00.984Z,30.83
2023-02-11T02:33:37.459Z,28.52
2023-02-11T02:36:14.297Z,29.23
2023-02-11T02:38:48.585Z,28.92
2023-02-11T02:41:19.137Z,28.38
2023-02-11T02:43:48.994Z,29.60
2023-02-11T02:46:18.520Z,27.88
2023-02-11T02:48:48.373Z,28.08
2023-02-11T02:51:36.138Z,28.88
2023-02-11T02:54:23.650Z,29.70
2023-02-11T02:56:56.062Z,29.25
2023-02-11T02:59:41.123Z,28.70
2023-02-11T03:02:17.751Z,28.00
2023-02-11T03:04:52.465Z,29.30
2023-02-11T03:07:25.430Z,28.95
2023-02-11T03:09:59.233Z,29.05
2023-02-11T03:12:29.911Z,26.73
2023-02-11T03:14:59.247Z,28.02
2023-02-11T03:17:28.458Z,29.02
2023-02-11T03:19:58.391Z,29.10
2023-02-11T03:22:30.639Z,29.55
2023-02-11T03:24:57.921Z,30.00
2023-02-11T03:27:28.808Z,30.77
2023-02-11T03:30:05.295Z,28.40
2023-02-11T03:32:36.618Z,29.85
2023-02-11T03:35:11.588Z,28.25
2023-02-11T03:37:43.185Z,30.25
2023-02-11T03:40:13.531Z,28.90
2023-02-11T03:42:45.818Z,28.83
2023-02-11T03:45:17.840Z,28.17
2023-02-11T03:47:50.178Z,29.02
2023-02-11T03:50:20.862Z,29.13
2023-02-11T03:52:50.145Z,29.33
2023-02-11T03:55:20.602Z,29.55
2023-02-11T03:57:47.938Z,29.95
2023-02-11T04:00:15.765Z,30.77
2023-02-11T04:02:43.372Z,30.05
2023-02-11T04:05:13.673Z,29.17
2023-02-11T04:07:42.167Z,30.38
2023-02-11T04:10:11.278Z,29.98
2023-02-11T04:12:38.458Z,31.15
2023-02-11T04:15:06.496Z,30.48
2023-02-11T04:17:33.738Z,31.25
2023-02-11T04:20:00.983Z,29.77
2023-02-11T04:22:28.149Z,30.50
2023-02-11T04:24:56.870Z,28.83
2023-02-11T04:27:24.012Z,28.08
2023-02-11T04:29:51.310Z,27.95
2023-02-11T04:32:18.514Z,27.35
2023-02-11T04:34:45.669Z,28.40
2023-02-11T04:37:13.058Z,27.88
2023-02-11T04:39:40.310Z,28.63
2023-02-11T04:42:08.889Z,28.98
2023-02-11T04:44:36.066Z,29.35
2023-02-11T04:47:03.504Z,28.05
2023-02-11T04:49:30.947Z,29.48
2023-02-11T04:51:58.103Z,30.85
2023-02-11T04:54:25.298Z,29.92
2023-02-11T04:56:52.404Z,28.83
2023-02-11T04:59:20.944Z,28.17
2023-02-11T05:01:48.112Z,28.80
2023-02-11T05:04:15.346Z,28.20
2023-02-11T05:06:42.537Z,28.17
2023-02-11T05:09:11.624Z,26.63
2023-02-11T05:11:38.911Z,27.48
2023-02-11T05:14:06.565Z,28.88
2023-02-11T05:16:35.190Z,27.73
2023-02-11T05:19:02.416Z,27.63
2023-02-11T05:21:29.828Z,25.98
2023-02-11T05:23:57.061Z,25.52
2023-02-11T05:26:24.604Z,26.45
2023-02-11T05:28:51.872Z,26.23
2023-02-11T05:31:19.118Z,27.88
2023-02-11T05:33:47.733Z,26.20
2023-02-11T05:36:14.936Z,25.98
2023-02-11T05:38:42.882Z,26.58
2023-02-11T05:41:10.968Z,26.23
2023-02-11T05:43:38.456Z,29.02
2023-02-11T05:46:05.966Z,25.52
2023-02-11T05:48:33.259Z,26.67
2023-02-11T05:51:01.779Z,29.70
2023-02-11T05:53:28.997Z,27.92
2023-02-11T05:55:56.133Z,29.60
2023-02-11T05:58:23.331Z,26.50
2023-02-11T06:00:50.442Z,26.58
2023-02-11T06:03:17.620Z,27.45
2023-02-11T06:05:44.963Z,26.45
2023-02-11T06:08:13.453Z,28.10
2023-02-11T06:10:40.642Z,27.13
2023-02-11T06:13:07.918Z,27.10
2023-02-11T06:15:35.059Z,25.00
2023-02-11T06:18:02.289Z,25.65
2023-02-11T06:20:29.469Z,26.15
2023-02-11T06:22:56.681Z,26.67
2023-02-11T06:25:25.220Z,26.30
2023-02-11T06:27:52.378Z,24.33
2023-02-11T06:30:19.636Z,25.08
2023-02-11T06:32:47.058Z,24.50
2023-02-11T06:35:14.618Z,24.15
2023-02-11T06:37:42.185Z,23.85
2023-02-11T06:40:10.381Z,24.45
2023-02-11T06:42:39.471Z,24.25
2023-02-11T06:45:07.950Z,24.42
2023-02-11T06:47:35.324Z,24.45
2023-02-11T06:50:02.814Z,25.83
2023-02-11T06:52:29.979Z,25.50
2023-02-11T06:54:57.175Z,28.15
2023-02-11T06:57:24.317Z,25.60
2023-02-11T06:59:52.950Z,24.77
2023-02-11T07:02:21.157Z,24.58
2023-02-11T07:04:48.733Z,24.45
2023-02-11T07:07:15.938Z,24.35
2023-02-11T07:09:43.354Z,24.13
2023-02-11T07:12:10.748Z,23.98
2023-02-11T07:14:37.967Z,23.95
2023-02-11T07:17:06.492Z,22.73
2023-02-11T07:19:33.651Z,24.10
2023-02-11T07:22:00.831Z,27.38
2023-02-11T07:24:27.998Z,24.30
2023-02-11T07:26:55.140Z,24.45
2023-02-11T07:29:22.334Z,25.40
2023-02-11T07:31:49.629Z,24.90
2023-02-11T07:34:18.211Z,25.05
2023-02-11T07:36:45.407Z,24.15
2023-02-11T07:39:12.578Z,23.90
2023-02-11T07:41:39.740Z,24.40
2023-02-11T07:44:07.432Z,23.50
2023-02-11T07:46:34.698Z,24.33
2023-02-11T07:49:01.946Z,27.88
2023-02-11T07:51:31.219Z,26.17
2023-02-11T07:54:00.007Z,28.17
2023-02-11T07:56:28.373Z,27.67
2023-02-11T07:58:56.350Z,28.65
2023-02-11T08:01:25.663Z,28.08
2023-02-11T08:03:53.196Z,26.77
2023-02-11T08:06:22.540Z,27.55
2023-02-11T08:08:51.717Z,27.30
2023-02-11T08:11:22.538Z,27.25
2023-02-11T08:13:50.011Z,27.23
2023-02-11T08:16:19.641Z,26.88
2023-02-11T08:18:47.520Z,25.58
2023-02-11T08:21:14.719Z,25.70
2023-02-11T08:23:44.001Z,24.23
2023-02-11T08:26:18.420Z,26.13
2023-02-11T08:28:47.246Z,24.45
2023-02-11T08:31:16.484Z,23.40
2023-02-11T08:33:43.864Z,24.33
2023-02-11T08:36:12.878Z,25.65
2023-02-11T08:38:40.497Z,23.98
2023-02-11T08:41:08.065Z,25.77
2023-02-11T08:43:37.490Z,25.85
2023-02-11T08:46:05.107Z,24.38
2023-02-11T08:48:32.382Z,24.95
2023-02-11T08:50:59.639Z,24.08
2023-02-11T08:53:26.941Z,23.52
2023-02-11T08:55:55.322Z,23.45
2023-02-11T08:58:22.845Z,23.13
2023-02-11T09:00:51.712Z,21.88
2023-02-11T09:03:18.987Z,22.05
2023-02-11T09:05:48.291Z,22.90
2023-02-11T09:08:16.172Z,21.48
2023-02-11T09:10:43.385Z,21.63
2023-02-11T09:13:10.629Z,21.83
2023-02-11T09:15:37.876Z,22.77
2023-02-11T09:18:06.442Z,21.17
2023-02-11T09:20:33.592Z,23.33
2023-02-11T09:23:00.744Z,21.65
2023-02-11T09:25:27.893Z,22.85
2023-02-11T09:27:55.066Z,21.77
2023-02-11T09:30:22.487Z,22.30
2023-02-11T09:32:49.634Z,22.13
2023-02-11T09:35:18.254Z,21.98
2023-02-11T09:37:45.407Z,22.38
2023-02-11T09:40:14.292Z,21.30
2023-02-11T09:42:46.958Z,21.42
2023-02-11T09:45:19.338Z,22.35
2023-02-11T09:47:50.808Z,21.30
2023-02-11T09:50:23.666Z,22.25
2023-02-11T09:52:56.654Z,21.38
2023-02-11T09:55:28.608Z,22.10
2023-02-11T09:57:56.713Z,24.17
2023-02-11T10:00:28.342Z,21.73
2023-02-11T10:03:08.633Z,21.83
2023-02-11T10:05:50.912Z,22.58
2023-02-11T10:08:27.983Z,21.90
2023-02-11T10:11:04.023Z,23.45
2023-02-11T10:13:47.743Z,22.02
2023-02-11T10:16:29.630Z,22.75
2023-02-11T10:19:13.169Z,21.45
2023-02-11T10:21:51.477Z,21.13
2023-02-11T10:24:19.138Z,22.83
2023-02-11T10:26:46.646Z,20.60
2023-02-11T10:29:27.533Z,22.88
2023-02-11T10:31:57.254Z,22.65
2023-02-11T10:34:25.416Z,23.88
2023-02-11T10:36:53.931Z,22.50
2023-02-11T10:39:23.169Z,22.00
2023-02-11T10:41:53.770Z,24.52
2023-02-11T10:44:26.337Z,22.38
2023-02-11T10:46:54.491Z,23.45
2023-02-11T10:49:35.179Z,23.02
2023-02-11T10:52:15.970Z,21.15
2023-02-11T10:54:55.897Z,21.90
2023-02-11T10:57:28.103Z,20.52
2023-02-11T10:59:59.403Z,22.58
2023-02-11T11:02:29.894Z,21.90
2023-02-11T11:04:58.704Z,23.60
2023-02-11T11:07:29.465Z,23.55
2023-02-11T11:10:00.002Z,23.63
2023-02-11T11:12:31.127Z,22.75
2023-02-11T11:15:01.020Z,27.33
2023-02-11T11:17:28.610Z,25.52
2023-02-11T11:20:14.409Z,23.92
2023-02-11T11:22:43.576Z,24.90
2023-02-11T11:25:22.268Z,29.50
2023-02-11T11:27:49.685Z,24.13
2023-02-11T11:30:17.430Z,20.98
2023-02-11T11:32:45.144Z,23.52
2023-02-11T11:35:24.080Z,23.60
2023-02-11T11:37:56.720Z,24.40
2023-02-11T11:40:25.845Z,23.35
2023-02-11T11:43:15.187Z,21.83
2023-02-11T11:45:54.055Z,22.73
2023-02-11T11:48:24.936Z,22.70
2023-02-11T11:50:54.742Z,22.60
2023-02-11T11:53:29.051Z,22.20
2023-02-11T11:56:02.870Z,21.08
2023-02-11T11:58:31.893Z,20.23
2023-02-11T12:01:10.291Z,22.25
2023-02-11T12:04:10.822Z,21.30
2023-02-11T12:06:44.904Z,21.40
2023-02-11T12:09:23.343Z,23.13
2023-02-11T12:12:20.161Z,20.65
2023-02-11T12:14:59.703Z,21.83
2023-02-11T12:17:49.020Z,21.02
2023-02-11T12:20:31.854Z,22.83
2023-02-11T12:23:12.837Z,21.50
2023-02-11T12:25:46.403Z,22.77
2023-02-11T12:28:27.235Z,22.45
2023-02-11T12:31:06.409Z,21.58
2023-02-11T12:34:12.138Z,21.67
2023-02-11T12:36:52.153Z,22.20
2023-02-11T12:39:32.468Z,20.75
2023-02-11T12:42:24.377Z,21.90
2023-02-11T12:45:07.558Z,21.33
2023-02-11T12:47:47.237Z,21.63
2023-02-11T12:50:22.319Z,21.10
2023-02-11T12:53:02.578Z,22.05
2023-02-11T12:55:35.854Z,21.30
2023-02-11T12:58:05.254Z,21.13
2023-02-11T13:00:43.284Z,22.50
2023-02-11T13:03:14.975Z,20.15
2023-02-11T13:05:46.779Z,21.77
2023-02-11T13:10:47.257Z,20.27
2023-02-11T13:15:50.883Z,20.80
2023-02-11T13:18:29.258Z,21.27
2023-02-11T13:21:08.855Z,20.92
2023-02-11T13:23:41.559Z,21.48
2023-02-11T13:26:16.324Z,21.77
2023-02-11T13:28:51.738Z,21.05
2023-02-11T13:31:19.280Z,20.20
2023-02-11T13:33:46.901Z,22.55
2023-02-11T13:36:23.114Z,27.92
2023-02-11T13:39:03.055Z,22.98
2023-02-11T13:41:33.244Z,22.35
2023-02-11T13:44:05.955Z,21.73
2023-02-11T13:46:55.307Z,21.08
2023-02-11T13:49:25.632Z,21.88
2023-02-11T13:51:54.338Z,21.48
2023-02-11T13:54:26.394Z,20.92
2023-02-11T13:57:35.012Z,21.10
2023-02-11T14:00:30.665Z,22.70
2023-02-11T14:03:28.780Z,22.13
2023-02-11T14:06:12.823Z,23.10
2023-02-11T14:08:59.397Z,22.30
2023-02-11T14:11:48.695Z,23.42
2023-02-11T14:14:26.090Z,24.40
2023-02-11T14:17:18.653Z,21.90
2023-02-11T14:19:47.712Z,23.05
2023-02-11T14:22:18.093Z,22.60
2023-02-11T14:24:49.269Z,24.83
2023-02-11T14:27:23.737Z,22.63
2023-02-11T14:30:07.933Z,22.05
2023-02-11T14:32:51.355Z,22.38
2023-02-11T14:35:27.557Z,21.40
2023-02-11T14:38:02.255Z,21.33
2023-02-11T14:40:33.897Z,21.65
2023-02-11T14:43:08.082Z,20.95
2023-02-11T14:45:36.764Z,22.17
2023-02-11T14:48:14.162Z,21.35
2023-02-11T14:50:45.387Z,23.23
2023-02-11T14:53:16.265Z,21.85
2023-02-11T14:55:47.708Z,22.27
2023-02-11T14:58:17.613Z,24.30
2023-02-11T15:00:50.508Z,20.52
2023-02-11T15:03:34.176Z,21.75
2023-02-11T15:06:05.052Z,22.25
2023-02-11T15:08:35.818Z,20.53
2023-02-11T15:11:08.024Z,22.00
2023-02-11T15:13:35.351Z,22.02
2023-02-11T15:16:07.015Z,19.08
2023-02-11T15:18:40.292Z,20.17
2023-02-11T15:21:08.245Z,20.48
2023-02-11T15:23:35.810Z,20.20
2023-02-11T15:26:12.038Z,19.70
2023-02-11T15:28:39.351Z,20.90
2023-02-11T15:31:14.914Z,22.20
2023-02-11T15:33:43.589Z,21.30
2023-02-11T15:36:12.138Z,20.55
2023-02-11T15:38:39.430Z,23.35
2023-02-11T15:41:07.229Z,22.50
2023-02-11T15:43:42.248Z,22.63
2023-02-11T15:46:12.960Z,23.08
2023-02-11T15:48:45.249Z,20.90
2023-02-11T15:51:20.152Z,18.58
2023-02-11T15:53:50.279Z,22.45
2023-02-11T15:56:22.373Z,20.55
2023-02-11T15:58:51.811Z,57.65
2023-02-11T16:01:19.658Z,51.03
2023-02-11T16:03:50.547Z,37.72
2023-02-11T16:06:20.776Z,26.13
2023-02-11T16:08:59.808Z,21.83
2023-02-11T16:11:29.212Z,20.45
2023-02-11T16:13:56.979Z,22.88
2023-02-11T16:16:26.416Z,21.67
2023-02-11T16:19:05.792Z,25.95
2023-02-11T16:21:35.510Z,24.85
2023-02-11T16:24:03.078Z,20.83
2023-02-11T16:26:34.425Z,21.25
2023-02-11T16:29:11.662Z,25.55
2023-02-11T16:31:42.142Z,21.25
2023-02-11T16:34:16.650Z,21.20
2023-02-11T16:36:44.519Z,18.58
2023-02-11T16:39:11.859Z,19.27
2023-02-11T16:41:39.022Z,19.05
2023-02-11T16:44:06.235Z,18.05
2023-02-11T16:46:34.061Z,19.70
2023-02-11T16:49:09.745Z,19.55
2023-02-11T16:51:40.875Z,19.00
2023-02-11T16:54:13.588Z,20.20
2023-02-11T16:56:40.773Z,19.50
2023-02-11T16:59:08.011Z,19.45
2023-02-11T17:01:35.705Z,21.15
2023-02-11T17:04:03.325Z,21.80
2023-02-11T17:06:30.989Z,24.38
2023-02-11T17:08:59.872Z,21.02
2023-02-11T17:11:27.091Z,18.65
2023-02-11T17:13:54.228Z,18.25
2023-02-11T17:16:23.092Z,18.90
2023-02-11T17:18:50.716Z,18.33
2023-02-11T17:21:18.644Z,18.98
2023-02-11T17:23:45.853Z,18.08
2023-02-11T17:26:14.383Z,18.80
2023-02-11T17:28:41.517Z,18.33
2023-02-11T17:31:09.144Z,22.27
2023-02-11T17:33:36.825Z,21.42
2023-02-11T17:36:05.549Z,33.05
2023-02-11T17:38:33.200Z,30.33
2023-02-11T17:41:01.560Z,31.08
2023-02-11T17:43:30.817Z,26.20
2023-02-11T17:45:58.484Z,27.13
2023-02-11T17:48:25.716Z,42.35
2023-02-11T17:50:52.884Z,53.33
2023-02-11T17:53:20.049Z,32.40
2023-02-11T17:55:47.177Z,28.38
2023-02-11T17:58:14.443Z,24.58
2023-02-11T18:00:42.998Z,23.05
2023-02-11T18:03:10.216Z,22.05
2023-02-11T18:05:37.813Z,23.30
2023-02-11T18:08:07.055Z,22.52
2023-02-11T18:10:34.400Z,21.75
2023-02-11T18:13:01.739Z,23.17
2023-02-11T18:15:29.023Z,22.70
2023-02-11T18:17:57.556Z,21.77
2023-02-11T18:20:24.733Z,21.42
2023-02-11T18:22:51.880Z,20.63
2023-02-11T18:25:19.334Z,21.08
2023-02-11T18:27:46.531Z,21.15
2023-02-11T18:30:16.089Z,20.75
2023-02-11T18:32:43.286Z,22.45
2023-02-11T18:35:14.719Z,22.65
2023-02-11T18:37:42.723Z,22.83
2023-02-11T18:40:11.291Z,22.63
2023-02-11T18:42:38.843Z,23.60
2023-02-11T18:45:06.849Z,26.00
2023-02-11T18:47:34.012Z,21.42
2023-02-11T18:50:01.184Z,26.08
2023-02-11T18:52:30.512Z,26.42
2023-02-11T18:54:57.812Z,26.42
2023-02-11T18:57:25.129Z,21.02
2023-02-11T18:59:52.353Z,21.23
2023-02-11T19:02:19.607Z,20.92
2023-02-11T19:04:46.838Z,23.05
2023-02-11T19:07:14.066Z,20.15
2023-02-11T19:09:42.698Z,20.42
2023-02-11T19:12:09.912Z,33.17
2023-02-11T19:14:37.236Z,32.60
2023-02-11T19:17:06.753Z,23.40
2023-02-11T19:19:35.813Z,19.45
2023-02-11T19:22:04.201Z,20.67
2023-02-11T19:24:31.875Z,18.40
2023-02-11T19:27:01.860Z,20.42
2023-02-11T19:29:30.192Z,22.08
2023-02-11T19:31:57.436Z,19.27
2023-02-11T19:34:25.039Z,21.33
2023-02-11T19:36:52.358Z,22.42
2023-02-11T19:39:20.034Z,22.75
2023-02-11T19:41:47.247Z,22.60
2023-02-11T19:44:15.979Z,23.10
2023-02-11T19:46:43.754Z,23.85
2023-02-11T19:49:14.105Z,35.80
2023-02-11T19:51:41.392Z,43.35
2023-02-11T19:54:08.593Z,41.53
2023-02-11T19:56:35.753Z,41.33
2023-02-11T19:59:03.962Z,40.15
2023-02-11T20:01:32.563Z,32.95
2023-02-11T20:03:59.751Z,26.33
2023-02-11T20:06:29.179Z,24.40
2023-02-11T20:08:58.808Z,22.02
2023-02-11T20:11:28.374Z,23.77
2023-02-11T20:13:55.552Z,25.80
2023-02-11T20:16:36.853Z,20.17
2023-02-11T20:19:12.893Z,17.77
2023-02-11T20:21:40.368Z,19.80
2023-02-11T20:24:07.627Z,24.75
2023-02-11T20:26:34.824Z,27.80
2023-02-11T20:29:02.471Z,25.25
2023-02-11T20:31:30.757Z,24.25
2023-02-11T20:33:58.234Z,20.73
2023-02-11T20:36:29.156Z,19.25
2023-02-11T20:38:56.756Z,19.73
2023-02-11T20:41:25.968Z,20.25
2023-02-11T20:43:54.871Z,21.30
2023-02-11T20:46:25.093Z,22.42
2023-02-11T20:48:54.188Z,22.02
2023-02-11T20:51:28.853Z,31.42
2023-02-11T20:53:56.481Z,27.40
2023-02-11T20:56:25.870Z,27.85
2023-02-11T20:58:53.336Z,28.45
2023-02-11T21:01:22.627Z,27.73
2023-02-11T21:03:52.725Z,28.50
2023-02-11T21:06:20.994Z,25.58
2023-02-11T21:08:49.555Z,26.27
2023-02-11T21:11:17.170Z,25.05
2023-02-11T21:13:44.370Z,22.52
2023-02-11T21:16:14.723Z,23.55
2023-02-11T21:18:42.022Z,22.08
2023-02-11T21:21:09.406Z,21.25
2023-02-11T21:23:36.571Z,22.50
2023-02-11T21:26:05.887Z,23.52
2023-02-11T21:28:33.876Z,25.23
2023-02-11T21:31:01.787Z,29.08
2023-02-11T21:33:30.218Z,29.17
2023-02-11T21:35:58.792Z,28.83
2023-02-11T21:38:27.027Z,26.90
2023-02-11T21:40:54.902Z,19.38
2023-02-11T21:43:23.418Z,19.98
2023-02-11T21:45:51.370Z,18.40
2023-02-11T21:48:18.888Z,21.55
2023-02-11T21:50:47.311Z,21.77
2023-02-11T21:53:14.824Z,22.40
2023-02-11T21:55:42.243Z,23.75
2023-02-11T21:58:10.668Z,22.80
2023-02-11T22:00:39.788Z,22.58
2023-02-11T22:03:06.945Z,18.10
2023-02-11T22:05:34.237Z,20.10
2023-02-11T22:08:01.381Z,22.08
2023-02-11T22:10:28.533Z,20.80
2023-02-11T22:12:55.696Z,21.27
2023-02-11T22:15:22.909Z,20.80
2023-02-11T22:17:51.471Z,20.42
2023-02-11T22:20:18.812Z,21.08
2023-02-11T22:22:45.961Z,19.10
2023-02-11T22:25:13.113Z,21.25
2023-02-11T22:27:40.301Z,21.95
2023-02-11T22:30:08.819Z,19.35
2023-02-11T22:32:36.133Z,20.15
2023-02-11T22:35:05.049Z,21.55
2023-02-11T22:37:32.204Z,20.52
2023-02-11T22:39:59.441Z,19.67
2023-02-11T22:42:26.590Z,20.45
2023-02-11T22:44:53.768Z,19.63
2023-02-11T22:47:20.930Z,22.23
2023-02-11T22:49:48.052Z,21.23
2023-02-11T22:52:16.737Z,22.42
2023-02-11T22:54:44.170Z,24.00
2023-02-11T22:57:11.335Z,25.27
2023-02-11T22:59:38.491Z,26.30
2023-02-11T23:02:05.831Z,26.88
2023-02-11T23:04:33.050Z,24.58
2023-02-11T23:07:00.229Z,23.25
2023-02-11T23:09:28.782Z,22.90
2023-02-11T23:11:55.916Z,23.85
2023-02-11T23:14:23.074Z,23.65
2023-02-11T23:16:50.660Z,25.08
2023-02-11T23:19:17.893Z,22.70
2023-02-11T23:21:45.067Z,20.30
2023-02-11T23:24:14.244Z,21.25
2023-02-11T23:26:43.309Z,21.10
2023-02-11T23:29:11.723Z,22.10
2023-02-11T23:31:41.857Z,23.23
2023-02-11T23:34:09.866Z,23.90
2023-02-11T23:36:37.478Z,23.73
2023-02-11T23:39:04.976Z,23.27
2023-02-11T23:41:32.169Z,22.45
2023-02-11T23:44:00.650Z,21.20
2023-02-11T23:46:28.146Z,22.40
2023-02-11T23:48:56.015Z,22.05
2023-02-11T23:51:24.003Z,20.67
2023-02-11T23:53:52.101Z,22.33
2023-02-11T23:56:24.612Z,21.95
2023-02-11T23:58:53.473Z,23.00
